UAL88 KDFW-KDEN
Flight info
| Callsign | UAL88 |
|---|---|
| Flight time | N/A |
| Altitude | 36000 |
| Route | HUDAD2 HUDAD EZEEE ZIGEE NIIXX4 |
| Aircraft | B77W/H-SDE1E2E3FGHIJ2J3J4J5M1RWXY/LB1D1 |
Departure
| Time | N/A |
|---|---|
| Airport | Dallas Fort Worth International Airport (KDFW) |
Arrival
| Time | 2026-05-06 04:07 |
|---|---|
| Airport | Denver International Airport (KDEN) |
| Time | Latitude | Longitude | Altitude | Speed | Heading |
|---|---|---|---|---|---|
| 2026-05-06 02:49 | 35.51426 | -101.11390 | 35972 ft | 430 kts | 308° |
| 2026-05-06 02:49 | 35.53831 | -101.13583 | 35979 ft | 430 kts | 308° |
| 2026-05-06 02:50 | 35.58625 | -101.17959 | 35976 ft | 429 kts | 308° |
| 2026-05-06 02:50 | 35.63433 | -101.22359 | 35969 ft | 434 kts | 308° |
| 2026-05-06 02:51 | 35.68317 | -101.26850 | 35973 ft | 448 kts | 308° |
| 2026-05-06 02:51 | 35.73374 | -101.31482 | 35981 ft | 457 kts | 308° |
| 2026-05-06 02:52 | 35.78509 | -101.36185 | 35970 ft | 460 kts | 308° |
| 2026-05-06 02:52 | 35.83787 | -101.40742 | 35967 ft | 468 kts | 312° |
| 2026-05-06 02:53 | 35.89274 | -101.45090 | 35947 ft | 468 kts | 312° |
| 2026-05-06 02:53 | 35.94755 | -101.49405 | 35947 ft | 466 kts | 312° |
| 2026-05-06 02:54 | 36.00194 | -101.53723 | 35943 ft | 464 kts | 312° |
| 2026-05-06 02:54 | 36.05616 | -101.58057 | 35943 ft | 463 kts | 312° |
| 2026-05-06 02:55 | 36.10978 | -101.62358 | 35937 ft | 462 kts | 312° |
| 2026-05-06 02:55 | 36.16367 | -101.66685 | 35937 ft | 461 kts | 312° |
| 2026-05-06 02:56 | 36.21754 | -101.71017 | 35948 ft | 461 kts | 312° |
| 2026-05-06 02:56 | 36.27130 | -101.75346 | 35944 ft | 461 kts | 312° |
| 2026-05-06 02:57 | 36.32504 | -101.79681 | 35944 ft | 461 kts | 311° |
| 2026-05-06 02:57 | 36.37841 | -101.83994 | 35949 ft | 461 kts | 311° |
| 2026-05-06 02:58 | 36.43212 | -101.88342 | 35947 ft | 461 kts | 311° |
| 2026-05-06 02:58 | 36.48589 | -101.92700 | 35934 ft | 461 kts | 311° |
| 2026-05-06 02:59 | 36.53967 | -101.97067 | 35934 ft | 461 kts | 311° |
| 2026-05-06 02:59 | 36.59349 | -102.01445 | 35940 ft | 462 kts | 311° |
| 2026-05-06 03:00 | 36.64723 | -102.05824 | 35942 ft | 462 kts | 311° |
| 2026-05-06 03:00 | 36.70109 | -102.10220 | 35944 ft | 462 kts | 311° |
| 2026-05-06 03:01 | 36.75492 | -102.14621 | 35941 ft | 463 kts | 311° |
| 2026-05-06 03:01 | 36.80879 | -102.19032 | 35940 ft | 463 kts | 311° |
| 2026-05-06 03:02 | 36.86230 | -102.23422 | 35943 ft | 463 kts | 311° |
| 2026-05-06 03:02 | 36.91611 | -102.27843 | 35936 ft | 463 kts | 311° |
| 2026-05-06 03:03 | 36.96998 | -102.32277 | 35919 ft | 463 kts | 311° |
| 2026-05-06 03:03 | 37.02386 | -102.36720 | 35917 ft | 463 kts | 311° |
| 2026-05-06 03:04 | 37.07763 | -102.41161 | 35920 ft | 463 kts | 311° |
| 2026-05-06 03:04 | 37.13148 | -102.45618 | 35921 ft | 463 kts | 312° |
| 2026-05-06 03:05 | 37.18492 | -102.50047 | 35917 ft | 464 kts | 312° |
| 2026-05-06 03:05 | 37.23875 | -102.54517 | 35920 ft | 464 kts | 312° |
| 2026-05-06 03:06 | 37.29258 | -102.58995 | 35921 ft | 465 kts | 312° |
| 2026-05-06 03:06 | 37.34661 | -102.63497 | 35917 ft | 465 kts | 312° |
| 2026-05-06 03:07 | 37.40057 | -102.68000 | 35923 ft | 466 kts | 312° |
| 2026-05-06 03:07 | 37.45457 | -102.72517 | 35928 ft | 466 kts | 312° |
| 2026-05-06 03:08 | 37.50861 | -102.77042 | 35922 ft | 467 kts | 313° |
| 2026-05-06 03:08 | 37.53680 | -102.79158 | 35921 ft | 481 kts | 319° |
| 2026-05-06 03:08 | 37.56744 | -102.80930 | 35933 ft | 488 kts | 323° |
| 2026-05-06 03:09 | 37.63088 | -102.84151 | 35937 ft | 492 kts | 324° |
| 2026-05-06 03:09 | 37.69433 | -102.87369 | 35937 ft | 490 kts | 323° |
| 2026-05-06 03:10 | 37.75713 | -102.90693 | 35951 ft | 488 kts | 323° |
| 2026-05-06 03:10 | 37.81915 | -102.94041 | 35968 ft | 487 kts | 323° |
| 2026-05-06 03:11 | 37.88147 | -102.97416 | 35980 ft | 486 kts | 323° |
| 2026-05-06 03:11 | 37.94360 | -103.00779 | 35993 ft | 485 kts | 323° |
| 2026-05-06 03:12 | 38.00562 | -103.04140 | 35990 ft | 484 kts | 323° |
| 2026-05-06 03:12 | 38.06747 | -103.07497 | 35994 ft | 484 kts | 323° |
| 2026-05-06 03:13 | 38.12940 | -103.10866 | 35993 ft | 484 kts | 323° |
| 2026-05-06 03:13 | 38.19130 | -103.14239 | 36003 ft | 484 kts | 323° |
| 2026-05-06 03:14 | 38.25331 | -103.17625 | 36003 ft | 485 kts | 323° |
| 2026-05-06 03:14 | 38.31538 | -103.21020 | 36002 ft | 486 kts | 324° |
| 2026-05-06 03:15 | 38.37723 | -103.24399 | 35991 ft | 474 kts | 324° |
| 2026-05-06 03:15 | 38.40706 | -103.26020 | 35984 ft | 458 kts | 323° |
| 2026-05-06 03:15 | 38.43599 | -103.27601 | 35981 ft | 446 kts | 323° |
| 2026-05-06 03:15 | 38.46413 | -103.29150 | 35976 ft | 433 kts | 323° |
| 2026-05-06 03:16 | 38.49128 | -103.30656 | 35573 ft | 430 kts | 322° |
| 2026-05-06 03:16 | 38.51872 | -103.32197 | 35200 ft | 435 kts | 322° |
| 2026-05-06 03:16 | 38.54681 | -103.33786 | 34728 ft | 448 kts | 323° |
| 2026-05-06 03:16 | 38.57553 | -103.35400 | 34224 ft | 451 kts | 323° |
| 2026-05-06 03:17 | 38.60430 | -103.36995 | 33656 ft | 449 kts | 324° |
| 2026-05-06 03:17 | 38.63281 | -103.38569 | 33103 ft | 445 kts | 324° |
| 2026-05-06 03:17 | 38.65192 | -103.39625 | 32753 ft | 442 kts | 324° |
| 2026-05-06 03:17 | 38.67999 | -103.41181 | 32241 ft | 438 kts | 325° |
| 2026-05-06 03:18 | 38.70779 | -103.42729 | 31732 ft | 433 kts | 326° |
| 2026-05-06 03:18 | 38.73497 | -103.44246 | 31242 ft | 429 kts | 326° |
| 2026-05-06 03:18 | 38.76219 | -103.45767 | 30768 ft | 425 kts | 327° |
| 2026-05-06 03:18 | 38.78918 | -103.47275 | 30291 ft | 422 kts | 327° |
| 2026-05-06 03:19 | 38.81460 | -103.48997 | 29749 ft | 404 kts | 315° |
| 2026-05-06 03:19 | 38.83425 | -103.51423 | 29194 ft | 384 kts | 303° |
| 2026-05-06 03:19 | 38.85173 | -103.53990 | 28670 ft | 381 kts | 304° |
| 2026-05-06 03:19 | 38.86919 | -103.56524 | 28158 ft | 378 kts | 304° |
| 2026-05-06 03:20 | 38.90404 | -103.61516 | 27136 ft | 372 kts | 305° |
| 2026-05-06 03:20 | 38.92080 | -103.63901 | 26663 ft | 369 kts | 306° |
| 2026-05-06 03:20 | 38.93797 | -103.66341 | 26172 ft | 367 kts | 306° |
| 2026-05-06 03:21 | 38.95510 | -103.68776 | 25697 ft | 365 kts | 306° |
| 2026-05-06 03:21 | 38.97206 | -103.71188 | 25212 ft | 363 kts | 306° |
| 2026-05-06 03:21 | 38.98892 | -103.73587 | 24744 ft | 362 kts | 306° |
| 2026-05-06 03:21 | 39.00579 | -103.75990 | 24266 ft | 360 kts | 307° |
| 2026-05-06 03:22 | 39.02259 | -103.78384 | 23778 ft | 360 kts | 307° |
| 2026-05-06 03:22 | 39.03936 | -103.80777 | 23238 ft | 360 kts | 307° |
| 2026-05-06 03:22 | 39.05546 | -103.83154 | 23089 ft | 342 kts | 304° |
| 2026-05-06 03:22 | 39.07054 | -103.85545 | 22702 ft | 351 kts | 306° |
| 2026-05-06 03:23 | 39.08742 | -103.87919 | 21889 ft | 364 kts | 309° |
| 2026-05-06 03:23 | 39.10468 | -103.90250 | 21335 ft | 363 kts | 309° |
| 2026-05-06 03:23 | 39.12199 | -103.92613 | 20821 ft | 349 kts | 308° |
| 2026-05-06 03:23 | 39.13833 | -103.94908 | 20388 ft | 346 kts | 307° |
| 2026-05-06 03:24 | 39.15408 | -103.97188 | 19928 ft | 344 kts | 307° |
| 2026-05-06 03:24 | 39.16985 | -103.99491 | 19486 ft | 342 kts | 307° |
| 2026-05-06 03:24 | 39.18553 | -104.01783 | 19032 ft | 340 kts | 307° |
| 2026-05-06 03:24 | 39.20132 | -104.04087 | 18585 ft | 338 kts | 307° |
| 2026-05-06 03:25 | 39.21666 | -104.06325 | 18118 ft | 336 kts | 307° |
| 2026-05-06 03:25 | 39.23215 | -104.08584 | 17630 ft | 335 kts | 307° |
| 2026-05-06 03:25 | 39.24753 | -104.10825 | 17161 ft | 332 kts | 307° |
| 2026-05-06 03:25 | 39.26275 | -104.13043 | 16864 ft | 325 kts | 307° |
| 2026-05-06 03:26 | 39.27748 | -104.15187 | 16724 ft | 314 kts | 307° |
| 2026-05-06 03:26 | 39.29170 | -104.17265 | 16586 ft | 301 kts | 306° |
| 2026-05-06 03:26 | 39.30236 | -104.19488 | 16330 ft | 287 kts | 288° |
| 2026-05-06 03:26 | 39.30739 | -104.21951 | 15997 ft | 282 kts | 280° |
| 2026-05-06 03:27 | 39.31126 | -104.24429 | 15628 ft | 281 kts | 279° |
| 2026-05-06 03:27 | 39.31504 | -104.26900 | 15278 ft | 280 kts | 279° |
| 2026-05-06 03:27 | 39.31883 | -104.29366 | 14913 ft | 279 kts | 280° |
| 2026-05-06 03:27 | 39.32266 | -104.31822 | 14549 ft | 279 kts | 280° |
| 2026-05-06 03:28 | 39.32650 | -104.34274 | 14199 ft | 278 kts | 280° |
| 2026-05-06 03:28 | 39.33032 | -104.36687 | 13913 ft | 275 kts | 280° |
| 2026-05-06 03:28 | 39.33415 | -104.39103 | 13765 ft | 267 kts | 280° |
| 2026-05-06 03:28 | 39.33777 | -104.41386 | 13627 ft | 258 kts | 280° |
| 2026-05-06 03:29 | 39.34131 | -104.43620 | 13493 ft | 250 kts | 280° |
| 2026-05-06 03:29 | 39.34477 | -104.45819 | 13171 ft | 249 kts | 280° |
| 2026-05-06 03:29 | 39.34819 | -104.47997 | 12868 ft | 247 kts | 280° |
| 2026-05-06 03:29 | 39.35159 | -104.50171 | 12559 ft | 247 kts | 280° |
| 2026-05-06 03:30 | 39.35502 | -104.52364 | 12275 ft | 255 kts | 280° |
| 2026-05-06 03:30 | 39.35853 | -104.54614 | 12164 ft | 254 kts | 280° |
| 2026-05-06 03:30 | 39.36256 | -104.56771 | 11997 ft | 237 kts | 292° |
| 2026-05-06 03:30 | 39.37214 | -104.58418 | 11880 ft | 228 kts | 317° |
| 2026-05-06 03:31 | 39.38556 | -104.59542 | 11733 ft | 237 kts | 335° |
| 2026-05-06 03:31 | 39.40233 | -104.59845 | 11571 ft | 252 kts | 6° |
| 2026-05-06 03:31 | 39.41899 | -104.59117 | 11411 ft | 254 kts | 22° |
| 2026-05-06 03:31 | 39.43599 | -104.58594 | 11205 ft | 253 kts | 354° |
| 2026-05-06 03:32 | 39.45278 | -104.59187 | 11070 ft | 251 kts | 332° |
| 2026-05-06 03:32 | 39.46832 | -104.60258 | 10892 ft | 255 kts | 328° |
| 2026-05-06 03:32 | 39.48363 | -104.61408 | 10697 ft | 254 kts | 328° |
| 2026-05-06 03:32 | 39.49884 | -104.62562 | 10495 ft | 251 kts | 331° |
| 2026-05-06 03:33 | 39.51532 | -104.63180 | 10316 ft | 246 kts | 352° |
| 2026-05-06 03:33 | 39.53239 | -104.63500 | 10160 ft | 250 kts | 351° |
| 2026-05-06 03:33 | 39.54962 | -104.63879 | 9988 ft | 253 kts | 350° |
| 2026-05-06 03:33 | 39.56704 | -104.64302 | 9788 ft | 254 kts | 349° |
| 2026-05-06 03:34 | 39.58409 | -104.64740 | 9573 ft | 253 kts | 349° |
| 2026-05-06 03:34 | 39.60129 | -104.65196 | 9384 ft | 251 kts | 348° |
| 2026-05-06 03:34 | 39.61835 | -104.65654 | 9196 ft | 249 kts | 349° |
| 2026-05-06 03:34 | 39.63523 | -104.66109 | 9003 ft | 246 kts | 349° |
| 2026-05-06 03:35 | 39.65205 | -104.66386 | 8710 ft | 244 kts | 0° |
| 2026-05-06 03:35 | 39.66883 | -104.66346 | 8456 ft | 235 kts | 3° |
| 2026-05-06 03:35 | 39.68436 | -104.66267 | 8290 ft | 216 kts | 4° |
| 2026-05-06 03:35 | 39.69948 | -104.66212 | 8149 ft | 222 kts | 2° |
| 2026-05-06 03:36 | 39.71449 | -104.66190 | 7856 ft | 206 kts | 2° |
| 2026-05-06 03:36 | 39.72806 | -104.66177 | 7548 ft | 182 kts | 2° |
| 2026-05-06 03:36 | 39.73998 | -104.66163 | 7294 ft | 162 kts | 3° |
| 2026-05-06 03:36 | 39.75089 | -104.66149 | 7112 ft | 156 kts | 3° |
| 2026-05-06 03:37 | 39.76173 | -104.66134 | 6908 ft | 156 kts | 3° |
| 2026-05-06 03:37 | 39.77247 | -104.66122 | 6733 ft | 153 kts | 3° |
| 2026-05-06 03:37 | 39.78265 | -104.66110 | 6525 ft | 152 kts | 3° |
| 2026-05-06 03:37 | 39.79077 | -104.66100 | 6335 ft | 150 kts | 3° |
| 2026-05-06 03:38 | 39.80114 | -104.66087 | 6085 ft | 148 kts | 2° |
| 2026-05-06 03:38 | 39.81136 | -104.66076 | 5843 ft | 145 kts | 0° |
| 2026-05-06 03:38 | 39.82143 | -104.66063 | 5637 ft | 145 kts | 0° |
| 2026-05-06 03:38 | 39.83153 | -104.66053 | 5489 ft | 143 kts | 359° |
| 2026-05-06 03:39 | 39.84183 | -104.66041 | 6536 ft | 144 kts | 2° |
| 2026-05-06 03:39 | 39.85281 | -104.66073 | 7512 ft | 177 kts | 360° |
| 2026-05-06 03:39 | 39.86560 | -104.66181 | 8499 ft | 181 kts | 356° |
| 2026-05-06 03:39 | 39.87878 | -104.66369 | 9247 ft | 215 kts | 353° |
| 2026-05-06 03:40 | 39.89487 | -104.66619 | 8699 ft | 240 kts | 356° |
| 2026-05-06 03:40 | 39.91153 | -104.66516 | 8867 ft | 246 kts | 2° |
| 2026-05-06 03:40 | 39.92869 | -104.66997 | 8962 ft | 262 kts | 336° |
| 2026-05-06 03:40 | 39.94664 | -104.67681 | 8952 ft | 280 kts | 357° |
| 2026-05-06 03:41 | 39.96619 | -104.67245 | 9043 ft | 286 kts | 25° |
| 2026-05-06 03:41 | 39.98192 | -104.65772 | 9018 ft | 278 kts | 51° |
| 2026-05-06 03:41 | 39.99073 | -104.63537 | 9020 ft | 279 kts | 77° |
| 2026-05-06 03:41 | 39.99363 | -104.61015 | 9021 ft | 283 kts | 85° |
| 2026-05-06 03:42 | 39.99514 | -104.58448 | 9013 ft | 283 kts | 87° |
| 2026-05-06 03:42 | 39.99639 | -104.55888 | 9001 ft | 282 kts | 87° |
| 2026-05-06 03:42 | 39.99673 | -104.53390 | 8984 ft | 276 kts | 99° |
| 2026-05-06 03:42 | 39.98992 | -104.51087 | 8996 ft | 274 kts | 126° |
| 2026-05-06 03:43 | 39.97550 | -104.49442 | 9008 ft | 274 kts | 154° |
| 2026-05-06 03:43 | 39.95739 | -104.48795 | 9014 ft | 275 kts | 173° |
| 2026-05-06 03:43 | 39.93819 | -104.48596 | 9023 ft | 278 kts | 176° |
| 2026-05-06 03:43 | 39.91877 | -104.48481 | 9022 ft | 280 kts | 177° |
| 2026-05-06 03:44 | 39.89918 | -104.48380 | 9025 ft | 282 kts | 177° |
| 2026-05-06 03:44 | 39.87962 | -104.48286 | 9030 ft | 282 kts | 177° |
| 2026-05-06 03:44 | 39.85999 | -104.48196 | 9027 ft | 281 kts | 177° |
| 2026-05-06 03:44 | 39.84044 | -104.48109 | 9021 ft | 280 kts | 177° |
| 2026-05-06 03:45 | 39.82137 | -104.48028 | 9022 ft | 279 kts | 177° |
| 2026-05-06 03:45 | 39.80169 | -104.47949 | 8992 ft | 278 kts | 177° |
| 2026-05-06 03:45 | 39.78223 | -104.47874 | 8737 ft | 282 kts | 177° |
| 2026-05-06 03:45 | 39.76254 | -104.47801 | 8488 ft | 281 kts | 177° |
| 2026-05-06 03:46 | 39.74309 | -104.47736 | 8221 ft | 278 kts | 177° |
| 2026-05-06 03:46 | 39.72397 | -104.47678 | 8095 ft | 270 kts | 177° |
| 2026-05-06 03:46 | 39.70542 | -104.47628 | 8032 ft | 266 kts | 177° |
| 2026-05-06 03:46 | 39.68668 | -104.47577 | 8036 ft | 271 kts | 177° |
| 2026-05-06 03:47 | 39.66790 | -104.47526 | 8027 ft | 276 kts | 177° |
| 2026-05-06 03:47 | 39.64869 | -104.47474 | 8012 ft | 276 kts | 177° |
| 2026-05-06 03:47 | 39.62971 | -104.47565 | 7992 ft | 271 kts | 191° |
| 2026-05-06 03:47 | 39.61269 | -104.48629 | 8003 ft | 278 kts | 219° |
| 2026-05-06 03:48 | 39.60097 | -104.50639 | 8011 ft | 286 kts | 245° |
| 2026-05-06 03:48 | 39.59653 | -104.53140 | 8011 ft | 286 kts | 263° |
| 2026-05-06 03:48 | 39.59522 | -104.55714 | 7987 ft | 287 kts | 266° |
| 2026-05-06 03:48 | 39.59445 | -104.58311 | 7976 ft | 288 kts | 267° |
| 2026-05-06 03:49 | 39.59375 | -104.60906 | 7975 ft | 288 kts | 267° |
| 2026-05-06 03:49 | 39.59427 | -104.63467 | 7955 ft | 282 kts | 283° |
| 2026-05-06 03:49 | 39.60361 | -104.65657 | 7978 ft | 280 kts | 317° |
| 2026-05-06 03:49 | 39.62029 | -104.66808 | 7985 ft | 278 kts | 349° |
| 2026-05-06 03:50 | 39.63966 | -104.66898 | 7992 ft | 280 kts | 6° |
| 2026-05-06 03:50 | 39.65916 | -104.66616 | 8002 ft | 284 kts | 8° |
| 2026-05-06 03:50 | 39.67860 | -104.66384 | 7977 ft | 275 kts | 5° |
| 2026-05-06 03:50 | 39.69727 | -104.66268 | 7965 ft | 262 kts | 3° |
| 2026-05-06 03:51 | 39.71505 | -104.66214 | 7960 ft | 250 kts | 2° |
| 2026-05-06 03:51 | 39.73217 | -104.66170 | 7959 ft | 245 kts | 2° |
| 2026-05-06 03:51 | 39.74912 | -104.66148 | 7755 ft | 239 kts | 2° |
| 2026-05-06 03:51 | 39.76499 | -104.66132 | 7365 ft | 218 kts | 2° |
| 2026-05-06 03:52 | 39.77961 | -104.66114 | 6953 ft | 202 kts | 2° |
| 2026-05-06 03:52 | 39.79038 | -104.66101 | 6591 ft | 200 kts | 3° |
| 2026-05-06 03:52 | 39.80421 | -104.66083 | 5978 ft | 196 kts | 0° |
| 2026-05-06 03:52 | 39.81749 | -104.66096 | 5997 ft | 200 kts | 359° |
| 2026-05-06 03:53 | 39.83202 | -104.66159 | 7215 ft | 219 kts | 358° |
| 2026-05-06 03:53 | 39.84824 | -104.66318 | 8163 ft | 256 kts | 356° |
| 2026-05-06 03:53 | 39.86765 | -104.66525 | 8314 ft | 272 kts | 356° |
| 2026-05-06 03:53 | 39.88541 | -104.66703 | 8450 ft | 247 kts | 359° |
| 2026-05-06 03:54 | 39.90222 | -104.66697 | 8379 ft | 249 kts | 1° |
| 2026-05-06 03:54 | 39.92015 | -104.66971 | 8370 ft | 268 kts | 350° |
| 2026-05-06 03:54 | 39.93829 | -104.67762 | 8881 ft | 278 kts | 333° |
| 2026-05-06 03:54 | 39.95559 | -104.68971 | 9047 ft | 280 kts | 333° |
| 2026-05-06 03:55 | 39.97226 | -104.70207 | 9021 ft | 277 kts | 328° |
| 2026-05-06 03:55 | 39.98883 | -104.71552 | 9021 ft | 280 kts | 328° |
| 2026-05-06 03:55 | 40.00431 | -104.73075 | 9004 ft | 281 kts | 310° |
| 2026-05-06 03:55 | 40.01358 | -104.75283 | 9005 ft | 280 kts | 283° |
| 2026-05-06 03:56 | 40.01567 | -104.77817 | 9013 ft | 284 kts | 270° |
| 2026-05-06 03:56 | 40.01557 | -104.80402 | 9010 ft | 286 kts | 268° |
| 2026-05-06 03:56 | 40.01363 | -104.82926 | 9007 ft | 284 kts | 252° |
| 2026-05-06 03:56 | 40.00412 | -104.85143 | 9018 ft | 281 kts | 225° |
| 2026-05-06 03:57 | 39.98808 | -104.86547 | 9021 ft | 279 kts | 198° |
| 2026-05-06 03:57 | 39.96908 | -104.86953 | 9026 ft | 278 kts | 181° |
| 2026-05-06 03:57 | 39.94963 | -104.86956 | 9022 ft | 280 kts | 178° |
| 2026-05-06 03:57 | 39.93016 | -104.86889 | 9016 ft | 280 kts | 178° |
| 2026-05-06 03:58 | 39.91062 | -104.86812 | 9016 ft | 281 kts | 178° |
| 2026-05-06 03:58 | 39.89105 | -104.86731 | 9010 ft | 281 kts | 178° |
| 2026-05-06 03:58 | 39.87129 | -104.86645 | 9028 ft | 288 kts | 178° |
| 2026-05-06 03:58 | 39.85134 | -104.86557 | 9012 ft | 283 kts | 178° |
| 2026-05-06 03:59 | 39.83183 | -104.86472 | 9002 ft | 278 kts | 178° |
| 2026-05-06 03:59 | 39.81263 | -104.86388 | 8969 ft | 275 kts | 178° |
| 2026-05-06 03:59 | 39.79343 | -104.86306 | 8980 ft | 277 kts | 178° |
| 2026-05-06 03:59 | 39.77417 | -104.86224 | 8985 ft | 278 kts | 178° |
| 2026-05-06 04:00 | 39.75478 | -104.86142 | 8980 ft | 279 kts | 177° |
| 2026-05-06 04:00 | 39.73531 | -104.86062 | 8990 ft | 280 kts | 177° |
| 2026-05-06 04:00 | 39.71621 | -104.85779 | 8973 ft | 276 kts | 161° |
| 2026-05-06 04:00 | 39.69977 | -104.84513 | 8837 ft | 280 kts | 135° |
| 2026-05-06 04:01 | 39.68913 | -104.82394 | 8477 ft | 285 kts | 109° |
| 2026-05-06 04:01 | 39.68642 | -104.80576 | 8235 ft | 283 kts | 94° |
| 2026-05-06 04:01 | 39.68636 | -104.78046 | 8055 ft | 276 kts | 89° |
| 2026-05-06 04:01 | 39.68715 | -104.75661 | 7961 ft | 251 kts | 88° |
| 2026-05-06 04:02 | 39.68773 | -104.74216 | 7894 ft | 235 kts | 88° |
| 2026-05-06 04:02 | 39.68857 | -104.72169 | 7608 ft | 220 kts | 87° |
| 2026-05-06 04:02 | 39.69220 | -104.70368 | 7469 ft | 197 kts | 55° |
| 2026-05-06 04:02 | 39.70558 | -104.68905 | 7454 ft | 191 kts | 18° |
| 2026-05-06 04:03 | 39.71434 | -104.68814 | 7508 ft | 188 kts | 357° |
| 2026-05-06 04:03 | 39.72747 | -104.68909 | 7506 ft | 190 kts | 1° |
| 2026-05-06 04:03 | 39.74071 | -104.68909 | 7488 ft | 191 kts | 2° |
| 2026-05-06 04:03 | 39.75398 | -104.68878 | 7469 ft | 190 kts | 3° |
| 2026-05-06 04:04 | 39.76704 | -104.68837 | 7426 ft | 192 kts | 3° |
| 2026-05-06 04:04 | 39.78028 | -104.68816 | 7207 ft | 185 kts | 2° |
| 2026-05-06 04:04 | 39.79245 | -104.68803 | 6947 ft | 164 kts | 3° |
| 2026-05-06 04:04 | 39.80335 | -104.68791 | 6756 ft | 152 kts | 3° |
| 2026-05-06 04:05 | 39.81381 | -104.68778 | 6557 ft | 151 kts | 3° |
| 2026-05-06 04:05 | 39.82442 | -104.68764 | 6314 ft | 152 kts | 2° |
| 2026-05-06 04:05 | 39.83472 | -104.68752 | 6036 ft | 143 kts | 1° |
| 2026-05-06 04:05 | 39.84451 | -104.68741 | 5818 ft | 140 kts | 0° |
| 2026-05-06 04:06 | 39.85422 | -104.68729 | 5616 ft | 138 kts | 360° |
| 2026-05-06 04:06 | 39.86377 | -104.68718 | 5408 ft | 137 kts | 0° |
| 2026-05-06 04:06 | 39.87293 | -104.68712 | 5363 ft | 123 kts | 0° |
| 2026-05-06 04:06 | 39.88031 | -104.68701 | 5366 ft | 88 kts | 0° |
| 2026-05-06 04:07 | 39.88520 | -104.68694 | 5361 ft | 53 kts | 0° |
| 2026-05-06 04:07 | 39.88787 | -104.68643 | 5361 ft | 29 kts | 21° |
| 2026-05-06 04:07 | 39.88900 | -104.68560 | 5361 ft | 0 kts | 43° |
| 2026-05-06 04:17 | 39.88960 | -104.68492 | 5365 ft | 16 kts | 36° |
| 2026-05-06 04:17 | 39.89058 | -104.68442 | 5365 ft | 15 kts | 6° |
| 2026-05-06 04:18 | 39.89167 | -104.68448 | 5366 ft | 16 kts | 352° |
| 2026-05-06 04:18 | 39.89274 | -104.68469 | 5366 ft | 13 kts | 354° |
| 2026-05-06 04:18 | 39.89355 | -104.68471 | 5366 ft | 16 kts | 2° |
| 2026-05-06 04:18 | 39.89462 | -104.68452 | 5363 ft | 16 kts | 11° |
| 2026-05-06 04:19 | 39.89546 | -104.68448 | 5364 ft | 1 kts | 314° |
| 2026-05-06 04:24 | 39.89553 | -104.68462 | 5361 ft | 15 kts | 295° |
| 2026-05-06 04:25 | 39.89563 | -104.68600 | 5361 ft | 16 kts | 270° |
| 2026-05-06 04:25 | 39.89563 | -104.68741 | 5363 ft | 16 kts | 270° |
| 2026-05-06 04:25 | 39.89563 | -104.68845 | 5363 ft | 16 kts | 270° |
| 2026-05-06 04:25 | 39.89564 | -104.68984 | 5360 ft | 16 kts | 270° |
| 2026-05-06 04:26 | 39.89565 | -104.69124 | 5358 ft | 16 kts | 270° |
| 2026-05-06 04:26 | 39.89566 | -104.69265 | 5356 ft | 16 kts | 270° |
| 2026-05-06 04:26 | 39.89566 | -104.69345 | 5354 ft | 9 kts | 272° |
| 2026-05-06 04:26 | 39.89541 | -104.69386 | 5349 ft | 6 kts | 196° |
| 2026-05-06 04:27 | 39.89463 | -104.69396 | 5346 ft | 6 kts | 181° |
| 2026-05-06 04:27 | 39.89375 | -104.69397 | 5345 ft | 16 kts | 180° |
| 2026-05-06 04:27 | 39.89266 | -104.69399 | 5347 ft | 16 kts | 180° |
| 2026-05-06 04:27 | 39.89158 | -104.69400 | 5345 ft | 16 kts | 180° |
| 2026-05-06 04:28 | 39.89050 | -104.69401 | 5346 ft | 16 kts | 180° |
| 2026-05-06 04:28 | 39.88941 | -104.69402 | 5349 ft | 16 kts | 180° |
| 2026-05-06 04:28 | 39.88833 | -104.69404 | 5350 ft | 16 kts | 180° |
| 2026-05-06 04:28 | 39.88724 | -104.69405 | 5350 ft | 16 kts | 180° |
| 2026-05-06 04:29 | 39.88616 | -104.69406 | 5351 ft | 16 kts | 180° |
| 2026-05-06 04:29 | 39.88508 | -104.69407 | 5351 ft | 16 kts | 180° |
| 2026-05-06 04:29 | 39.88401 | -104.69409 | 5352 ft | 16 kts | 180° |
| 2026-05-06 04:29 | 39.88291 | -104.69410 | 5350 ft | 16 kts | 180° |
| 2026-05-06 04:30 | 39.88184 | -104.69411 | 5348 ft | 16 kts | 180° |
| 2026-05-06 04:30 | 39.88076 | -104.69412 | 5349 ft | 16 kts | 180° |
| 2026-05-06 04:30 | 39.87968 | -104.69414 | 5347 ft | 16 kts | 180° |
| 2026-05-06 04:30 | 39.87859 | -104.69415 | 5346 ft | 16 kts | 180° |
| 2026-05-06 04:31 | 39.87751 | -104.69416 | 5347 ft | 16 kts | 180° |
| 2026-05-06 04:31 | 39.87643 | -104.69418 | 5347 ft | 16 kts | 180° |
| 2026-05-06 04:31 | 39.87534 | -104.69419 | 5348 ft | 16 kts | 180° |
| 2026-05-06 04:31 | 39.87426 | -104.69420 | 5349 ft | 16 kts | 180° |
| 2026-05-06 04:32 | 39.87318 | -104.69421 | 5351 ft | 16 kts | 180° |
| 2026-05-06 04:32 | 39.87209 | -104.69423 | 5350 ft | 16 kts | 180° |
| 2026-05-06 04:32 | 39.87101 | -104.69424 | 5352 ft | 16 kts | 180° |
| 2026-05-06 04:32 | 39.86992 | -104.69425 | 5348 ft | 16 kts | 180° |
| 2026-05-06 04:33 | 39.86884 | -104.69426 | 5349 ft | 16 kts | 180° |
| 2026-05-06 04:33 | 39.86776 | -104.69428 | 5347 ft | 16 kts | 180° |
| 2026-05-06 04:33 | 39.86668 | -104.69429 | 5345 ft | 16 kts | 180° |
| 2026-05-06 04:33 | 39.86562 | -104.69430 | 5345 ft | 10 kts | 180° |
| 2026-05-06 04:34 | 39.86506 | -104.69414 | 5348 ft | 16 kts | 155° |
| 2026-05-06 04:34 | 39.86411 | -104.69347 | 5353 ft | 16 kts | 150° |
| 2026-05-06 04:34 | 39.86317 | -104.69278 | 5356 ft | 16 kts | 150° |
| 2026-05-06 04:34 | 39.86223 | -104.69210 | 5358 ft | 16 kts | 150° |
| 2026-05-06 04:35 | 39.86129 | -104.69141 | 5359 ft | 16 kts | 150° |
| 2026-05-06 04:35 | 39.86063 | -104.69090 | 5360 ft | 12 kts | 140° |
| 2026-05-06 04:35 | 39.86036 | -104.69012 | 5359 ft | 10 kts | 90° |
| 2026-05-06 04:35 | 39.86036 | -104.68904 | 5361 ft | 16 kts | 90° |
| 2026-05-06 04:36 | 39.86035 | -104.68764 | 5363 ft | 16 kts | 90° |
| 2026-05-06 04:36 | 39.86034 | -104.68623 | 5365 ft | 16 kts | 90° |
| 2026-05-06 04:36 | 39.86033 | -104.68549 | 5366 ft | 9 kts | 93° |
| 2026-05-06 04:36 | 39.85977 | -104.68513 | 5368 ft | 16 kts | 176° |
| 2026-05-06 04:37 | 39.85887 | -104.68512 | 5368 ft | 15 kts | 180° |
| 2026-05-06 04:37 | 39.85783 | -104.68504 | 5370 ft | 2 kts | 168° |
| 2026-05-06 04:38 | 39.85721 | -104.68470 | 5371 ft | 17 kts | 142° |
| 2026-05-06 04:39 | 39.85688 | -104.68373 | 5376 ft | 12 kts | 94° |
| 2026-05-06 04:39 | 39.85687 | -104.68267 | 5382 ft | 16 kts | 89° |
| 2026-05-06 04:39 | 39.85679 | -104.68178 | 5377 ft | 11 kts | 109° |
| 2026-05-06 04:39 | 39.85679 | -104.68068 | 5380 ft | 16 kts | 63° |
| 2026-05-06 04:40 | 39.85722 | -104.68010 | 5377 ft | 10 kts | 54° |
| 2026-05-06 04:40 | 39.85735 | -104.67899 | 5375 ft | 16 kts | 90° |
| 2026-05-06 04:40 | 39.85734 | -104.67759 | 5375 ft | 16 kts | 90° |
| 2026-05-06 04:40 | 39.85733 | -104.67619 | 5383 ft | 16 kts | 90° |
| 2026-05-06 04:41 | 39.85733 | -104.67527 | 5384 ft | 11 kts | 90° |
| 2026-05-06 04:41 | 39.85744 | -104.67478 | 5379 ft | 6 kts | 31° |
| 2026-05-06 04:41 | 39.85783 | -104.67466 | 5381 ft | 7 kts | 3° |
| 2026-05-06 04:41 | 39.85820 | -104.67466 | 5383 ft | 1 kts | 358° |